createdAt,value
2023-01-29T00:01:48.406Z,142557.69
2023-01-29T00:04:15.337Z,142560.13
2023-01-29T00:06:42.150Z,142555.31
2023-01-29T00:09:08.965Z,142548.06
2023-01-29T00:11:35.984Z,142538.47
2023-01-29T00:14:02.794Z,142548.06
2023-01-29T00:16:29.586Z,142557.69
2023-01-29T00:18:56.430Z,142562.50
2023-01-29T00:21:23.511Z,142555.31
2023-01-29T00:23:51.218Z,142545.69
2023-01-29T00:26:18.079Z,142542.06
2023-01-29T00:28:48.101Z,142528.84
2023-01-29T00:31:16.403Z,142515.63
2023-01-29T00:33:43.934Z,142519.22
2023-01-29T00:36:11.603Z,142520.41
2023-01-29T00:38:38.773Z,142512.00
2023-01-29T00:41:31.498Z,142507.19
2023-01-29T00:44:17.323Z,142490.34
2023-01-29T00:46:44.209Z,142480.72
2023-01-29T00:49:11.367Z,142485.53
2023-01-29T00:51:38.899Z,142485.53
2023-01-29T00:54:06.798Z,142485.53
2023-01-29T00:56:34.667Z,142489.16
2023-01-29T00:59:01.477Z,142468.69
2023-01-29T01:01:47.224Z,142454.25
2023-01-29T01:04:14.241Z,142456.69
2023-01-29T01:06:42.031Z,142447.06
2023-01-29T01:09:28.398Z,142449.47
2023-01-29T01:11:55.584Z,142433.84
2023-01-29T01:14:22.410Z,142430.22
2023-01-29T01:16:49.506Z,142432.59
2023-01-29T01:19:16.409Z,142432.59
2023-01-29T01:21:48.144Z,142423.00
2023-01-29T01:24:15.314Z,142408.59
2023-01-29T01:26:42.164Z,142413.38
2023-01-29T01:29:09.146Z,142414.56
2023-01-29T01:31:36.151Z,142402.59
2023-01-29T01:34:03.093Z,142411.00
2023-01-29T01:36:31.355Z,142402.59
2023-01-29T01:38:58.584Z,142397.78
2023-01-29T01:41:25.468Z,142389.34
2023-01-29T01:43:55.603Z,142386.94
2023-01-29T01:46:22.850Z,142378.50
2023-01-29T01:48:55.820Z,142368.91
2023-01-29T01:51:24.366Z,142374.94
2023-01-29T01:54:04.007Z,142362.91
2023-01-29T01:56:38.362Z,142362.91
2023-01-29T01:59:07.181Z,142352.09
2023-01-29T02:01:34.073Z,142347.31
2023-01-29T02:04:27.769Z,142340.06
2023-01-29T02:07:14.504Z,142326.84
2023-01-29T02:09:46.628Z,142318.44
2023-01-29T02:12:15.840Z,142319.63
2023-01-29T02:14:43.507Z,142310.00
2023-01-29T02:17:11.688Z,142318.44
2023-01-29T02:19:45.417Z,142103.38
2023-01-29T02:22:25.758Z,142307.63
2023-01-29T02:24:52.541Z,142310.00
2023-01-29T02:27:21.532Z,142319.63
2023-01-29T02:30:06.438Z,142314.81
2023-01-29T02:32:40.818Z,142302.81
2023-01-29T02:35:32.525Z,142298.03
2023-01-29T02:38:05.439Z,142276.38
2023-01-29T02:40:35.318Z,142289.59
2023-01-29T02:43:02.656Z,142281.19
2023-01-29T02:45:39.769Z,142261.97
2023-01-29T02:48:11.223Z,142255.94
2023-01-29T02:50:43.095Z,142254.75
2023-01-29T02:53:23.995Z,142240.34
2023-01-29T02:56:05.640Z,142242.72
2023-01-29T02:58:42.097Z,142249.94
2023-01-29T03:01:13.043Z,142247.53
2023-01-29T03:03:45.467Z,142223.50
2023-01-29T03:06:32.903Z,142204.28
2023-01-29T03:09:01.548Z,142197.06
2023-01-29T03:11:32.622Z,142194.69
2023-01-29T03:14:06.122Z,142204.28
2023-01-29T03:16:39.319Z,142211.47
2023-01-29T03:19:09.810Z,142213.91
2023-01-29T03:22:00.277Z,142211.47
2023-01-29T03:24:51.341Z,142218.69
2023-01-29T03:27:42.079Z,142204.28
2023-01-29T03:30:29.249Z,142197.06
2023-01-29T03:33:12.435Z,142192.28
2023-01-29T03:35:43.090Z,142187.47
2023-01-29T03:38:11.337Z,142180.25
2023-01-29T03:40:58.473Z,142165.84
2023-01-29T03:43:32.965Z,142163.47
2023-01-29T03:46:08.303Z,142159.84
2023-01-29T03:48:40.208Z,142153.84
2023-01-29T03:51:24.998Z,142170.63
2023-01-29T03:53:55.029Z,142159.84
2023-01-29T03:56:34.314Z,142153.84
2023-01-29T03:59:15.760Z,142144.19
2023-01-29T04:02:28.619Z,142141.81
2023-01-29T04:05:02.980Z,142141.81
2023-01-29T04:07:33.438Z,142144.19
2023-01-29T04:10:02.924Z,142147.81
2023-01-29T04:12:45.108Z,142139.41
2023-01-29T04:15:15.425Z,142123.81
2023-01-29T04:17:53.041Z,142129.81
2023-01-29T04:20:25.942Z,142134.59
2023-01-29T04:22:53.092Z,142132.22
2023-01-29T04:25:26.407Z,142162.22
2023-01-29T04:28:08.516Z,142138.22
2023-01-29T04:30:42.113Z,142117.81
2023-01-29T04:33:28.864Z,142122.63
2023-01-29T04:36:07.049Z,142111.78
2023-01-29T04:38:33.901Z,142096.19
2023-01-29T04:41:18.855Z,142062.53
2023-01-29T04:43:55.458Z,142067.34
2023-01-29T04:46:29.872Z,142064.97
2023-01-29T04:48:56.650Z,142069.78
2023-01-29T04:51:32.546Z,142077.00
2023-01-29T04:54:05.518Z,142077.00
2023-01-29T04:56:38.086Z,142088.97
2023-01-29T04:59:07.253Z,142103.38
2023-01-29T05:01:35.560Z,142129.81
2023-01-29T05:04:05.175Z,142158.66
2023-01-29T05:06:32.556Z,142157.41
2023-01-29T05:09:00.771Z,142163.47
2023-01-29T05:11:30.028Z,142149.06
2023-01-29T05:13:56.861Z,142175.44
2023-01-29T05:16:26.045Z,142162.22
2023-01-29T05:18:53.522Z,142193.47
2023-01-29T05:21:20.867Z,142224.69
2023-01-29T05:23:59.228Z,142251.13
2023-01-29T05:26:45.561Z,142242.72
2023-01-29T05:29:12.385Z,142259.56
2023-01-29T05:31:39.250Z,142230.72
2023-01-29T05:34:06.202Z,142266.78
2023-01-29T05:36:33.018Z,142249.94
2023-01-29T05:38:59.929Z,142235.53
2023-01-29T05:41:26.769Z,142247.53
2023-01-29T05:43:53.812Z,142264.34
2023-01-29T05:46:20.623Z,142233.09
2023-01-29T05:48:47.428Z,142248.75
2023-01-29T05:51:14.243Z,142219.88
2023-01-29T05:53:41.054Z,142187.47
2023-01-29T05:56:08.019Z,142173.06
2023-01-29T05:58:34.921Z,142163.47
2023-01-29T06:01:21.659Z,142185.09
2023-01-29T06:03:48.485Z,142139.41
2023-01-29T06:06:15.327Z,142137.03
2023-01-29T06:08:42.662Z,142127.41
2023-01-29T06:11:11.609Z,142120.19
2023-01-29T06:13:38.587Z,142127.41
2023-01-29T06:16:08.774Z,142117.81
2023-01-29T06:18:36.266Z,142099.81
2023-01-29T06:21:03.989Z,142104.59
2023-01-29T06:23:30.848Z,142074.56
2023-01-29T06:26:04.919Z,142062.53
2023-01-29T06:28:31.993Z,142055.38
2023-01-29T06:31:08.295Z,142066.16
2023-01-29T06:33:43.234Z,142075.75
2023-01-29T06:36:10.190Z,142052.94
2023-01-29T06:38:37.053Z,142057.75
2023-01-29T06:41:15.146Z,142048.16
2023-01-29T06:43:44.223Z,142042.16
2023-01-29T06:46:11.488Z,142036.16
2023-01-29T06:48:38.293Z,142032.56
2023-01-29T06:51:06.421Z,142033.75
2023-01-29T06:53:33.745Z,142027.75
2023-01-29T06:56:00.592Z,142020.53
2023-01-29T06:58:27.505Z,142012.13
2023-01-29T07:00:54.407Z,142015.75
2023-01-29T07:03:21.424Z,142012.13
2023-01-29T07:05:52.551Z,142016.94
2023-01-29T07:08:22.603Z,142009.75
2023-01-29T07:10:50.012Z,142009.75
2023-01-29T07:13:16.805Z,142024.16
2023-01-29T07:15:44.467Z,142060.16
2023-01-29T07:18:14.410Z,142090.16
2023-01-29T07:20:42.267Z,142125.00
2023-01-29T07:23:11.760Z,142146.63
2023-01-29T07:25:39.002Z,142183.84
2023-01-29T07:28:06.262Z,142216.28
2023-01-29T07:30:33.313Z,142235.53
2023-01-29T07:33:08.043Z,142219.88
2023-01-29T07:35:39.128Z,142242.72
2023-01-29T07:38:07.230Z,142277.56
2023-01-29T07:40:34.215Z,142293.22
2023-01-29T07:43:01.770Z,142293.22
2023-01-29T07:45:31.691Z,142312.44
2023-01-29T07:47:58.571Z,142334.06
2023-01-29T07:50:25.998Z,142343.69
2023-01-29T07:52:55.936Z,142312.44
2023-01-29T07:55:23.158Z,142331.66
2023-01-29T07:57:56.816Z,142384.56
2023-01-29T08:00:23.846Z,142370.13
2023-01-29T08:02:50.921Z,142425.44
2023-01-29T08:05:17.905Z,142477.09
2023-01-29T08:07:49.223Z,142496.38
2023-01-29T08:10:20.994Z,142499.94
2023-01-29T08:12:47.974Z,142492.75
2023-01-29T08:15:14.844Z,142504.75
2023-01-29T08:20:30.163Z,142518.00
2023-01-29T08:23:04.604Z,142516.81
2023-01-29T08:25:32.023Z,142544.47
2023-01-29T08:27:59.427Z,142564.94
2023-01-29T08:30:27.450Z,142542.06
2023-01-29T08:32:54.396Z,142533.66
2023-01-29T08:35:21.682Z,142572.13
2023-01-29T08:37:52.978Z,142608.22
2023-01-29T08:40:20.073Z,142588.97
2023-01-29T08:42:46.988Z,142574.53
2023-01-29T08:45:13.846Z,142578.16
2023-01-29T08:47:45.002Z,142599.81
2023-01-29T08:50:11.859Z,142615.44
2023-01-29T08:52:38.721Z,142588.97
2023-01-29T08:55:05.838Z,142572.13
2023-01-29T08:57:32.671Z,142623.88
2023-01-29T08:59:59.538Z,142657.53
2023-01-29T09:02:26.412Z,142682.84
2023-01-29T09:04:53.270Z,142716.50
2023-01-29T09:07:21.694Z,142711.69
2023-01-29T09:09:48.542Z,142704.50
2023-01-29T09:12:15.440Z,142724.94
2023-01-29T09:14:42.257Z,142738.19
2023-01-29T09:17:09.053Z,142751.41
2023-01-29T09:19:36.953Z,142759.84
2023-01-29T09:22:03.785Z,142803.22
2023-01-29T09:24:30.802Z,142798.41
2023-01-29T09:26:57.638Z,142832.09
2023-01-29T09:29:26.409Z,142885.06
2023-01-29T09:31:53.416Z,142882.66
2023-01-29T09:34:20.354Z,142909.16
2023-01-29T09:36:47.170Z,142885.06
2023-01-29T09:39:14.069Z,142863.41
2023-01-29T09:41:51.398Z,142904.34
2023-01-29T09:44:27.051Z,142904.34
2023-01-29T09:46:55.899Z,142923.59
2023-01-29T09:49:26.268Z,142923.59
2023-01-29T09:51:58.050Z,142926.03
2023-01-29T09:54:28.606Z,142956.09
2023-01-29T09:56:56.783Z,142940.47
2023-01-29T09:59:24.792Z,142976.59
2023-01-29T10:01:54.758Z,142898.34
2023-01-29T10:04:24.695Z,143082.59
2023-01-29T10:06:54.362Z,143107.94
2023-01-29T10:09:33.376Z,143060.97
2023-01-29T10:12:00.173Z,143065.78
2023-01-29T10:14:30.801Z,143104.31
2023-01-29T10:17:00.737Z,143032.00
2023-01-29T10:19:33.528Z,143066.97
2023-01-29T10:22:06.408Z,143080.22
2023-01-29T10:24:51.705Z,143111.56
2023-01-29T10:27:19.126Z,143113.94
2023-01-29T10:29:47.905Z,143068.16
2023-01-29T10:32:17.127Z,143080.22
2023-01-29T10:34:54.733Z,143109.13
2023-01-29T10:37:24.171Z,143086.22
2023-01-29T10:39:51.165Z,143087.47
2023-01-29T10:42:21.050Z,143106.75
2023-01-29T10:44:47.816Z,143117.56
2023-01-29T10:47:32.350Z,143107.94
2023-01-29T10:50:08.583Z,143135.66
2023-01-29T10:52:50.920Z,143118.75
2023-01-29T10:55:27.178Z,143076.59
2023-01-29T10:58:15.245Z,143142.91
2023-01-29T11:00:43.141Z,143126.00
2023-01-29T11:03:28.606Z,143186.28
2023-01-29T11:06:04.179Z,143179.06
2023-01-29T11:08:40.125Z,143273.09
2023-01-29T11:11:17.673Z,143316.50
2023-01-29T11:14:07.080Z,143338.22
2023-01-29T11:17:00.460Z,143345.47
2023-01-29T11:19:40.624Z,143456.44
2023-01-29T11:22:20.923Z,143405.78
2023-01-29T11:29:28.877Z,143450.41
2023-01-29T11:35:12.777Z,143403.34
2023-01-29T11:40:34.120Z,143350.28
2023-01-29T11:43:26.866Z,143323.75
2023-01-29T11:45:55.066Z,143432.31
2023-01-29T11:48:23.799Z,143490.25
2023-01-29T11:50:55.571Z,143504.72
2023-01-29T11:53:42.176Z,143434.72
2023-01-29T11:56:29.590Z,143444.34
2023-01-29T11:58:57.927Z,143403.34
2023-01-29T12:01:38.362Z,143408.16
2023-01-29T12:04:15.882Z,143384.03
2023-01-29T12:06:44.112Z,143433.50
2023-01-29T12:09:16.888Z,143369.59
2023-01-29T12:11:43.882Z,143388.88
2023-01-29T12:14:22.656Z,143473.34
2023-01-29T12:16:56.009Z,143490.25
2023-01-29T12:19:29.439Z,143552.97
2023-01-29T12:22:03.731Z,143504.72
2023-01-29T12:24:30.918Z,143467.28
2023-01-29T12:27:05.802Z,143543.31
2023-01-29T12:30:04.469Z,143545.75
2023-01-29T12:32:46.363Z,143516.75
2023-01-29T12:51:19.062Z,143524.00
2023-01-29T12:54:30.082Z,143526.44
2023-01-29T13:24:39.654Z,143567.47
2023-01-29T13:27:06.710Z,143566.25
2023-01-29T13:29:34.084Z,143610.91
2023-01-29T13:32:03.708Z,143586.78
2023-01-29T13:34:35.587Z,143612.09
2023-01-29T13:37:08.964Z,143592.81
2023-01-29T13:39:44.117Z,143572.31
2023-01-29T13:42:19.002Z,143538.50
2023-01-29T13:44:56.610Z,143536.09
2023-01-29T13:47:25.517Z,143567.47
2023-01-29T13:50:13.239Z,143603.69
2023-01-29T13:52:43.155Z,143625.41
2023-01-29T13:55:10.035Z,143577.13
2023-01-29T13:57:48.299Z,143569.88
2023-01-29T14:00:21.092Z,143592.81
2023-01-29T14:02:48.200Z,143612.09
2023-01-29T14:05:30.055Z,143613.34
2023-01-29T14:07:59.853Z,143574.69
2023-01-29T14:10:28.189Z,143584.34
2023-01-29T14:13:14.970Z,143572.31
2023-01-29T14:15:41.823Z,143577.13
2023-01-29T14:18:08.658Z,143566.25
2023-01-29T14:20:55.931Z,143618.19
2023-01-29T14:23:40.331Z,143585.59
2023-01-29T14:26:25.836Z,143562.66
2023-01-29T14:29:01.530Z,143562.66
2023-01-29T14:31:29.801Z,143574.69
2023-01-29T14:34:01.157Z,143548.13
2023-01-29T14:36:28.100Z,143525.22
2023-01-29T14:38:55.149Z,143526.44
2023-01-29T14:41:32.629Z,143545.75
2023-01-29T14:44:18.004Z,143543.31
2023-01-29T14:46:44.876Z,143560.22
2023-01-29T14:49:11.703Z,143546.94
2023-01-29T14:51:42.599Z,143509.53
2023-01-29T14:54:15.377Z,143534.84
2023-01-29T14:56:56.954Z,143521.56
2023-01-29T14:59:34.100Z,143495.06
2023-01-29T15:02:05.696Z,143484.19
2023-01-29T15:04:44.498Z,143487.81
2023-01-29T15:07:11.302Z,143475.72
2023-01-29T15:09:47.497Z,143456.44
2023-01-29T15:12:34.851Z,143445.59
2023-01-29T15:15:05.891Z,143450.41
2023-01-29T15:17:49.241Z,143446.78
2023-01-29T15:20:34.592Z,143509.53
2023-01-29T15:23:03.349Z,143497.47
2023-01-29T15:25:37.710Z,143502.28
2023-01-29T15:28:10.067Z,143516.75
2023-01-29T15:30:37.731Z,143364.75
2023-01-29T15:33:07.702Z,143483.00
2023-01-29T15:35:35.988Z,143530.03
2023-01-29T15:38:04.962Z,143516.75
2023-01-29T15:40:32.149Z,143503.47
2023-01-29T15:42:59.111Z,143497.47
2023-01-29T15:45:31.191Z,143507.09
2023-01-29T15:48:00.610Z,143495.06
2023-01-29T15:50:28.242Z,143458.88
2023-01-29T15:52:58.799Z,143458.88
2023-01-29T15:55:27.339Z,143458.88
2023-01-29T15:57:54.235Z,143427.50
2023-01-29T16:00:26.005Z,143415.41
2023-01-29T16:02:53.443Z,143420.25
2023-01-29T16:05:22.888Z,143420.25
2023-01-29T16:07:51.118Z,143429.88
2023-01-29T16:10:20.011Z,143437.13
2023-01-29T16:12:51.355Z,143470.91
2023-01-29T16:15:25.385Z,143467.28
2023-01-29T16:17:52.288Z,143497.47
2023-01-29T16:20:26.978Z,143461.25
2023-01-29T16:22:57.238Z,143441.97
2023-01-29T16:25:24.319Z,143467.28
2023-01-29T16:27:51.590Z,143422.66
2023-01-29T16:30:18.651Z,143457.63
2023-01-29T16:32:45.589Z,143444.34
2023-01-29T16:35:16.250Z,143419.03
2023-01-29T16:37:47.391Z,143414.22
2023-01-29T16:40:16.412Z,143419.03
2023-01-29T16:42:43.218Z,143434.72
2023-01-29T16:45:27.188Z,143422.66
2023-01-29T16:48:01.795Z,143408.16
2023-01-29T16:50:46.324Z,143403.34
2023-01-29T16:53:23.025Z,143396.13
2023-01-29T16:55:51.246Z,143387.66
2023-01-29T16:58:18.060Z,143381.66
2023-01-29T17:00:53.708Z,143369.59
2023-01-29T17:03:21.291Z,143386.47
2023-01-29T17:05:48.236Z,143390.06
2023-01-29T17:08:21.257Z,143391.31
2023-01-29T17:10:48.780Z,143382.84
2023-01-29T17:13:23.561Z,143396.13
2023-01-29T17:15:50.564Z,143385.25
2023-01-29T17:18:24.746Z,143384.03
2023-01-29T17:20:54.734Z,143390.06
2023-01-29T17:23:22.069Z,143388.88
2023-01-29T17:25:48.925Z,143391.31
2023-01-29T17:28:16.924Z,143375.59
2023-01-29T17:30:50.671Z,143381.66
2023-01-29T17:33:22.632Z,143387.66
2023-01-29T17:35:50.054Z,143386.47
2023-01-29T17:38:25.842Z,143396.13
2023-01-29T17:40:59.407Z,143409.41
2023-01-29T17:43:26.285Z,143381.66
2023-01-29T17:45:53.456Z,143376.78
2023-01-29T17:48:24.551Z,143405.78
2023-01-29T17:50:53.461Z,143427.50
2023-01-29T17:53:21.122Z,143409.41
2023-01-29T17:55:48.275Z,143411.78
2023-01-29T17:58:33.158Z,143399.75
2023-01-29T18:00:59.972Z,143406.97
2023-01-29T18:03:27.396Z,143420.25
2023-01-29T18:05:54.235Z,143388.88
2023-01-29T18:08:24.194Z,143399.75
2023-01-29T18:10:51.033Z,143414.22
2023-01-29T18:13:17.810Z,143408.16
2023-01-29T18:15:44.633Z,143417.84
2023-01-29T18:18:17.853Z,143410.59
2023-01-29T18:20:45.103Z,143439.53
2023-01-29T18:23:12.488Z,143420.25
2023-01-29T18:25:39.343Z,143416.59
2023-01-29T18:28:06.293Z,143425.06
2023-01-29T18:30:33.475Z,143425.06
2023-01-29T18:33:00.321Z,143470.91
2023-01-29T18:35:27.443Z,143472.16
2023-01-29T18:37:54.892Z,143458.88
2023-01-29T18:40:21.702Z,143480.56
2023-01-29T18:42:48.616Z,143454.03
2023-01-29T18:45:16.566Z,143425.06
2023-01-29T18:47:43.568Z,143420.25
2023-01-29T18:50:10.681Z,143426.25
2023-01-29T18:52:37.577Z,143400.94
2023-01-29T18:55:10.442Z,143426.25
2023-01-29T18:58:27.446Z,143437.13
2023-01-29T19:00:26.127Z,143409.41
2023-01-29T19:02:53.824Z,143412.97
2023-01-29T19:05:24.649Z,143417.84
2023-01-29T19:07:52.311Z,143411.78
2023-01-29T19:10:19.261Z,143398.50
2023-01-29T19:12:47.636Z,143408.16
2023-01-29T19:15:16.207Z,143422.66
2023-01-29T19:17:43.324Z,143403.34
2023-01-29T19:20:10.637Z,143406.97
2023-01-29T19:22:37.479Z,143437.13
2023-01-29T19:25:05.410Z,143411.78
2023-01-29T19:27:32.335Z,143439.53
2023-01-29T19:29:59.683Z,143421.44
2023-01-29T19:32:28.006Z,143410.59
2023-01-29T19:34:55.028Z,143394.88
2023-01-29T19:37:22.336Z,143415.41
2023-01-29T19:39:49.284Z,143350.28
2023-01-29T19:42:16.189Z,143361.13
2023-01-29T19:44:44.720Z,143417.84
2023-01-29T19:47:11.586Z,143429.88
2023-01-29T19:49:41.697Z,143386.47
2023-01-29T19:52:33.520Z,143419.03
2023-01-29T19:55:02.321Z,143361.13
2023-01-29T19:57:32.907Z,143374.41
2023-01-29T20:00:00.567Z,143368.38
2023-01-29T20:02:32.640Z,143387.66
2023-01-29T20:05:01.124Z,143380.41
2023-01-29T20:07:30.819Z,143386.47
2023-01-29T20:09:57.971Z,143343.03
2023-01-29T20:12:26.964Z,143385.25
2023-01-29T20:14:53.827Z,143363.56
2023-01-29T20:17:20.817Z,143374.41
2023-01-29T20:19:47.734Z,143350.28
2023-01-29T20:22:14.653Z,143392.50
2023-01-29T20:24:42.659Z,143337.03
2023-01-29T20:27:10.670Z,143364.75
2023-01-29T20:29:40.789Z,143374.41
2023-01-29T20:32:08.793Z,143384.03
2023-01-29T20:34:36.272Z,143344.22
2023-01-29T20:37:03.101Z,143359.94
2023-01-29T20:39:29.929Z,143356.31
2023-01-29T20:41:57.251Z,143362.31
2023-01-29T20:44:27.088Z,143390.06
2023-01-29T20:46:53.899Z,143373.22
2023-01-29T20:49:21.726Z,143359.94
2023-01-29T20:51:48.608Z,143376.78
2023-01-29T20:54:15.589Z,143364.75
2023-01-29T20:56:48.218Z,143379.22
2023-01-29T20:59:15.334Z,143390.06
2023-01-29T21:01:45.502Z,143387.66
2023-01-29T21:04:12.418Z,143369.59
2023-01-29T21:06:39.287Z,143352.69
2023-01-29T21:09:06.240Z,143339.41
2023-01-29T21:11:33.503Z,143314.09
2023-01-29T21:14:01.731Z,143321.31
2023-01-29T21:16:28.818Z,143312.88
2023-01-29T21:18:56.713Z,143321.31
2023-01-29T21:21:23.987Z,143323.75
2023-01-29T21:23:50.814Z,143326.13
2023-01-29T21:26:18.815Z,143317.69
2023-01-29T21:28:46.131Z,143340.59
2023-01-29T21:31:23.117Z,143345.47
2023-01-29T21:33:49.993Z,143326.13
2023-01-29T21:36:16.838Z,143374.41
2023-01-29T21:38:43.870Z,143355.13
2023-01-29T21:41:10.737Z,143328.56
2023-01-29T21:43:38.081Z,143340.59
2023-01-29T21:46:11.660Z,143320.13
2023-01-29T21:48:40.416Z,143315.31
2023-01-29T21:51:07.734Z,143311.69
2023-01-29T21:53:35.093Z,143316.50
2023-01-29T21:56:03.002Z,143302.03
2023-01-29T21:58:29.930Z,143309.28
2023-01-29T22:00:56.801Z,143304.41
2023-01-29T22:03:39.522Z,143311.69
2023-01-29T22:06:06.566Z,143309.28
2023-01-29T22:08:33.625Z,143333.41
2023-01-29T22:11:07.218Z,143322.50
2023-01-29T22:13:34.302Z,143326.13
2023-01-29T22:16:01.170Z,143328.56
2023-01-29T22:18:27.957Z,143335.78
2023-01-29T22:20:55.736Z,143347.84
2023-01-29T22:23:23.177Z,143391.31
2023-01-29T22:25:50.542Z,143363.56
2023-01-29T22:28:18.141Z,143387.66
2023-01-29T22:30:45.136Z,143371.97
2023-01-29T22:33:12.099Z,143403.34
2023-01-29T22:35:39.097Z,143386.47
2023-01-29T22:38:06.464Z,143376.78
2023-01-29T22:40:33.231Z,143379.22
2023-01-29T22:43:00.125Z,143390.06
2023-01-29T22:45:27.245Z,143428.69
2023-01-29T22:59:21.366Z,143391.31
2023-01-29T23:01:48.217Z,143434.72
2023-01-29T23:04:15.128Z,143434.72
2023-01-29T23:06:41.965Z,143422.66
2023-01-29T23:09:08.749Z,143415.41
2023-01-29T23:11:35.533Z,143439.53
2023-01-29T23:14:02.338Z,143492.63
2023-01-29T23:16:29.246Z,143483.00
2023-01-29T23:18:56.676Z,143496.25
2023-01-29T23:21:24.903Z,143492.63
2023-01-29T23:23:59.206Z,143441.97
2023-01-29T23:26:44.970Z,143455.25
2023-01-29T23:29:12.196Z,143483.00
2023-01-29T23:31:39.126Z,143493.81
2023-01-29T23:34:05.995Z,143467.28
2023-01-29T23:36:32.798Z,143455.25
2023-01-29T23:38:59.636Z,143466.09
2023-01-29T23:41:26.420Z,143435.94
2023-01-29T23:43:54.207Z,143429.88
